SWA2749 KLAX-KOAK
Flight info
| Callsign | SWA2749 |
|---|---|
| Flight time | N/A |
| Altitude | 36000 |
| Route | LADYJ4 COREZ DCT RGOOD EMZOH4 |
| Aircraft | B738/M-SDE2E3FGHIRWXY/LB1 |
Departure
| Time | 2026-04-20 21:51 |
|---|---|
| Airport | Los Angeles International Airport (KLAX) |
Arrival
| Time | N/A |
|---|---|
| Airport | San Francisco Bay Oakland International Airport (KOAK) |
| Time | Latitude | Longitude | Altitude | Speed | Heading |
|---|---|---|---|---|---|
| 2026-04-20 21:26 | 33.94732 | -118.40064 | 125 ft | 0 kts | 263° |
| 2026-04-20 21:40 | 33.94733 | -118.40047 | 121 ft | 2 kts | 263° |
| 2026-04-20 21:40 | 33.94735 | -118.40028 | 123 ft | 2 kts | 263° |
| 2026-04-20 21:40 | 33.94737 | -118.40008 | 124 ft | 2 kts | 263° |
| 2026-04-20 21:40 | 33.94737 | -118.40006 | 122 ft | 0 kts | 263° |
| 2026-04-20 21:45 | 33.94740 | -118.40013 | 124 ft | 1 kts | 302° |
| 2026-04-20 21:46 | 33.94759 | -118.40015 | 121 ft | 5 kts | 3° |
| 2026-04-20 21:46 | 33.94810 | -118.40012 | 122 ft | 10 kts | 0° |
| 2026-04-20 21:46 | 33.94874 | -118.40065 | 125 ft | 13 kts | 315° |
| 2026-04-20 21:46 | 33.94907 | -118.40174 | 123 ft | 15 kts | 270° |
| 2026-04-20 21:47 | 33.94893 | -118.40304 | 125 ft | 13 kts | 285° |
| 2026-04-20 21:47 | 33.94915 | -118.40323 | 120 ft | 2 kts | 31° |
| 2026-04-20 21:47 | 33.94916 | -118.40321 | 121 ft | 0 kts | 42° |
| 2026-04-20 21:49 | 33.94920 | -118.40317 | 125 ft | 3 kts | 42° |
| 2026-04-20 21:49 | 33.94948 | -118.40297 | 123 ft | 7 kts | 20° |
| 2026-04-20 21:49 | 33.95007 | -118.40293 | 122 ft | 8 kts | 339° |
| 2026-04-20 21:49 | 33.95009 | -118.40297 | 122 ft | 1 kts | 309° |
| 2026-04-20 21:50 | 33.95007 | -118.40303 | 122 ft | 2 kts | 261° |
| 2026-04-20 21:50 | 33.95002 | -118.40345 | 122 ft | 21 kts | 262° |
| 2026-04-20 21:50 | 33.94945 | -118.40858 | 125 ft | 102 kts | 263° |
| 2026-04-20 21:50 | 33.94827 | -118.42002 | 127 ft | 171 kts | 262° |
| 2026-04-20 21:51 | 33.94653 | -118.43591 | 509 ft | 207 kts | 263° |
| 2026-04-20 21:51 | 33.94469 | -118.45440 | 1035 ft | 239 kts | 262° |
| 2026-04-20 21:51 | 33.94308 | -118.47525 | 1558 ft | 248 kts | 266° |
| 2026-04-20 21:51 | 33.94243 | -118.49527 | 2018 ft | 236 kts | 267° |
| 2026-04-20 21:52 | 33.94194 | -118.51465 | 2353 ft | 229 kts | 265° |
| 2026-04-20 21:52 | 33.94056 | -118.53371 | 2639 ft | 230 kts | 263° |
| 2026-04-20 21:52 | 33.93894 | -118.55323 | 2887 ft | 243 kts | 263° |
| 2026-04-20 21:52 | 33.93721 | -118.57394 | 3209 ft | 252 kts | 263° |
| 2026-04-20 21:53 | 33.93550 | -118.59515 | 3553 ft | 256 kts | 264° |
| 2026-04-20 21:53 | 33.93447 | -118.61624 | 3847 ft | 249 kts | 275° |
| 2026-04-20 21:53 | 33.94066 | -118.63535 | 4071 ft | 249 kts | 308° |
| 2026-04-20 21:53 | 33.95368 | -118.64919 | 4362 ft | 253 kts | 326° |
| 2026-04-20 21:54 | 33.96881 | -118.66062 | 4663 ft | 260 kts | 328° |
| 2026-04-20 21:54 | 33.98442 | -118.67180 | 4981 ft | 262 kts | 332° |
| 2026-04-20 21:54 | 34.00194 | -118.67733 | 5237 ft | 264 kts | 2° |
| 2026-04-20 21:54 | 34.02024 | -118.67558 | 5576 ft | 264 kts | 4° |
| 2026-04-20 21:55 | 34.03872 | -118.67426 | 5893 ft | 270 kts | 3° |
| 2026-04-20 21:55 | 34.05755 | -118.67309 | 6312 ft | 271 kts | 3° |
| 2026-04-20 21:55 | 34.07650 | -118.67194 | 6695 ft | 276 kts | 4° |
| 2026-04-20 21:55 | 34.09552 | -118.66885 | 7023 ft | 279 kts | 11° |
| 2026-04-20 21:56 | 34.11466 | -118.66411 | 7452 ft | 283 kts | 12° |
| 2026-04-20 21:56 | 34.13406 | -118.65910 | 7870 ft | 287 kts | 12° |
| 2026-04-20 21:56 | 34.15368 | -118.65414 | 8253 ft | 288 kts | 12° |
| 2026-04-20 21:56 | 34.17338 | -118.64931 | 8644 ft | 290 kts | 11° |
| 2026-04-20 21:57 | 34.19319 | -118.64454 | 9020 ft | 291 kts | 11° |
| 2026-04-20 21:57 | 34.21309 | -118.63981 | 9404 ft | 293 kts | 11° |
| 2026-04-20 21:57 | 34.23314 | -118.63506 | 9783 ft | 295 kts | 11° |
| 2026-04-20 21:57 | 34.25361 | -118.63337 | 10109 ft | 298 kts | 350° |
| 2026-04-20 21:58 | 34.27389 | -118.63850 | 10493 ft | 299 kts | 346° |
| 2026-04-20 21:58 | 34.29432 | -118.64368 | 10875 ft | 301 kts | 347° |
| 2026-04-20 21:58 | 34.31496 | -118.64858 | 11246 ft | 304 kts | 347° |
| 2026-04-20 21:58 | 34.33580 | -118.65340 | 11656 ft | 307 kts | 347° |
| 2026-04-20 21:59 | 34.35694 | -118.65825 | 12080 ft | 313 kts | 347° |
| 2026-04-20 21:59 | 34.37867 | -118.66321 | 12484 ft | 322 kts | 347° |
| 2026-04-20 21:59 | 34.40098 | -118.66831 | 12946 ft | 330 kts | 347° |
| 2026-04-20 21:59 | 34.42374 | -118.67378 | 13467 ft | 336 kts | 342° |
| 2026-04-20 22:00 | 34.44493 | -118.68531 | 13972 ft | 336 kts | 324° |
| 2026-04-20 22:00 | 34.46493 | -118.70033 | 14499 ft | 341 kts | 324° |
| 2026-04-20 22:00 | 34.48535 | -118.71528 | 15036 ft | 346 kts | 324° |
| 2026-04-20 22:00 | 34.50620 | -118.73024 | 15602 ft | 350 kts | 325° |
| 2026-04-20 22:01 | 34.52733 | -118.74523 | 16214 ft | 353 kts | 325° |
| 2026-04-20 22:01 | 34.54866 | -118.76032 | 16823 ft | 356 kts | 324° |
| 2026-04-20 22:01 | 34.56985 | -118.77530 | 17446 ft | 359 kts | 324° |
| 2026-04-20 22:01 | 34.59147 | -118.79060 | 18069 ft | 361 kts | 324° |
| 2026-04-20 22:02 | 34.61321 | -118.80598 | 18612 ft | 363 kts | 324° |
| 2026-04-20 22:02 | 34.63507 | -118.82147 | 19177 ft | 364 kts | 324° |
| 2026-04-20 22:02 | 34.65702 | -118.83702 | 19656 ft | 366 kts | 324° |
| 2026-04-20 22:02 | 34.67906 | -118.85268 | 20096 ft | 368 kts | 324° |
| 2026-04-20 22:03 | 34.70120 | -118.86839 | 20594 ft | 369 kts | 323° |
| 2026-04-20 22:03 | 34.72340 | -118.88415 | 21105 ft | 370 kts | 324° |
| 2026-04-20 22:03 | 34.74565 | -118.89995 | 21635 ft | 371 kts | 324° |
| 2026-04-20 22:03 | 34.76796 | -118.91580 | 22169 ft | 372 kts | 324° |
| 2026-04-20 22:04 | 34.79030 | -118.93169 | 22742 ft | 372 kts | 324° |
| 2026-04-20 22:04 | 34.81263 | -118.94760 | 23338 ft | 372 kts | 324° |
| 2026-04-20 22:04 | 34.83497 | -118.96353 | 23855 ft | 373 kts | 324° |
| 2026-04-20 22:04 | 34.85735 | -118.97953 | 24293 ft | 373 kts | 324° |
| 2026-04-20 22:05 | 34.87972 | -118.99554 | 24708 ft | 373 kts | 324° |
| 2026-04-20 22:05 | 34.90211 | -119.01155 | 25173 ft | 373 kts | 324° |
| 2026-04-20 22:05 | 34.92449 | -119.02757 | 25602 ft | 373 kts | 324° |
| 2026-04-20 22:05 | 34.94684 | -119.04357 | 26063 ft | 372 kts | 324° |
| 2026-04-20 22:06 | 34.96906 | -119.05949 | 26462 ft | 370 kts | 325° |
| 2026-04-20 22:06 | 34.99119 | -119.07534 | 26851 ft | 369 kts | 325° |
| 2026-04-20 22:06 | 35.01328 | -119.09116 | 27230 ft | 367 kts | 325° |
| 2026-04-20 22:06 | 35.03536 | -119.10699 | 27598 ft | 368 kts | 325° |
| 2026-04-20 22:07 | 35.05748 | -119.12286 | 27956 ft | 369 kts | 325° |
| 2026-04-20 22:07 | 35.07964 | -119.13877 | 28324 ft | 370 kts | 325° |
| 2026-04-20 22:07 | 35.10185 | -119.15473 | 28675 ft | 371 kts | 325° |
| 2026-04-20 22:07 | 35.12375 | -119.17046 | 29022 ft | 370 kts | 325° |
| 2026-04-20 22:08 | 35.14589 | -119.18639 | 29362 ft | 369 kts | 325° |
| 2026-04-20 22:08 | 35.16828 | -119.20249 | 29692 ft | 368 kts | 325° |
| 2026-04-20 22:08 | 35.19032 | -119.21837 | 29986 ft | 368 kts | 325° |
| 2026-04-20 22:08 | 35.21240 | -119.23428 | 30199 ft | 370 kts | 325° |
| 2026-04-20 22:09 | 35.23438 | -119.25016 | 30272 ft | 375 kts | 325° |
| 2026-04-20 22:09 | 35.25698 | -119.26646 | 30393 ft | 379 kts | 325° |
| 2026-04-20 22:09 | 35.27978 | -119.28293 | 30531 ft | 382 kts | 325° |
| 2026-04-20 22:09 | 35.30279 | -119.29957 | 30680 ft | 386 kts | 325° |
| 2026-04-20 22:10 | 35.32602 | -119.31637 | 30855 ft | 390 kts | 325° |
| 2026-04-20 22:10 | 35.34947 | -119.33334 | 31045 ft | 393 kts | 325° |
| 2026-04-20 22:10 | 35.37312 | -119.35047 | 31252 ft | 396 kts | 325° |
| 2026-04-20 22:10 | 35.39689 | -119.36768 | 31473 ft | 398 kts | 325° |
| 2026-04-20 22:11 | 35.42072 | -119.38495 | 31684 ft | 398 kts | 325° |
| 2026-04-20 22:11 | 35.44457 | -119.40224 | 31892 ft | 399 kts | 325° |
| 2026-04-20 22:11 | 35.46845 | -119.41958 | 32096 ft | 399 kts | 325° |
| 2026-04-20 22:11 | 35.49235 | -119.43695 | 32303 ft | 400 kts | 325° |
| 2026-04-20 22:12 | 35.51631 | -119.45437 | 32501 ft | 400 kts | 325° |
| 2026-04-20 22:12 | 35.54028 | -119.47181 | 32700 ft | 401 kts | 325° |
| 2026-04-20 22:12 | 35.56410 | -119.48966 | 32879 ft | 400 kts | 321° |
| 2026-04-20 22:13 | 35.60800 | -119.53257 | 32823 ft | 411 kts | 316° |
| 2026-04-20 22:13 | 35.65179 | -119.57915 | 32805 ft | 422 kts | 315° |
| 2026-04-20 22:14 | 35.69691 | -119.62668 | 32895 ft | 431 kts | 316° |
| 2026-04-20 22:14 | 35.74333 | -119.67452 | 33050 ft | 438 kts | 316° |
| 2026-04-20 22:15 | 35.79046 | -119.72283 | 33254 ft | 443 kts | 316° |
| 2026-04-20 22:15 | 35.81421 | -119.74719 | 33367 ft | 446 kts | 316° |
| 2026-04-20 22:15 | 35.83805 | -119.77169 | 33486 ft | 447 kts | 316° |
| 2026-04-20 22:15 | 35.86203 | -119.79636 | 33614 ft | 449 kts | 316° |
| 2026-04-20 22:16 | 35.88602 | -119.82106 | 33743 ft | 451 kts | 316° |
| 2026-04-20 22:16 | 35.91010 | -119.84591 | 33871 ft | 452 kts | 315° |
| 2026-04-20 22:16 | 35.93319 | -119.87138 | 33992 ft | 452 kts | 313° |
| 2026-04-20 22:17 | 35.97140 | -119.91680 | 33970 ft | 460 kts | 311° |